Terminal Aerodrome Forecast
Issued by NWS Blacksburg, VA

Current Version | Previous Version | Graphics & Text | Print | Product List | Glossary On
Versions: 1 2 3 4 5 6 7 8 9 10 11 12 13 14 15 16 17 18 19 20 21 22 23 24 25 26 27 28 29 30 31
149
FTUS41 KRNK 010520
TAFBLF
TAF
KBLF 010520Z 0106/0206 22012KT P6SM SCT025 OVC050
     FM011000 20007KT P6SM BKN100 WS020/22045KT
     FM011400 22013KT P6SM BKN150
     FM012000 26016G28KT 5SM -SHRA VCTS OVC040CB
     FM020200 28014G25KT P6SM BKN030=

USA.gov is the U.S. government's official web portal to all federal, state and local government web resources and services.